createdAt,value
2023-04-15T00:01:12.325Z,0.35
2023-04-15T00:03:40.349Z,2.38
2023-04-15T00:06:07.798Z,1.08
2023-04-15T00:08:35.129Z,0.90
2023-04-15T00:11:05.756Z,0.75
2023-04-15T00:16:02.347Z,0.20
2023-04-15T00:18:30.100Z,0.50
2023-04-15T00:20:57.500Z,0.82
2023-04-15T00:23:25.067Z,1.15
2023-04-15T00:25:52.477Z,0.40
2023-04-15T00:28:20.083Z,1.95
2023-04-15T00:30:48.014Z,0.32
2023-04-15T00:33:19.283Z,3.35
2023-04-15T00:35:47.418Z,0.63
2023-04-15T00:38:14.658Z,1.27
2023-04-15T00:40:43.645Z,0.35
2023-04-15T00:43:10.878Z,0.63
2023-04-15T00:45:38.701Z,0.75
2023-04-15T00:48:06.298Z,0.60
2023-04-15T00:50:34.365Z,0.40
2023-04-15T00:53:01.778Z,0.90
2023-04-15T00:55:29.073Z,0.20
2023-04-15T00:57:58.080Z,1.88
2023-04-15T01:00:25.558Z,0.40
2023-04-15T01:02:53.196Z,1.85
2023-04-15T01:05:20.687Z,1.17
2023-04-15T01:07:48.939Z,0.45
2023-04-15T01:10:16.334Z,0.43
2023-04-15T01:12:44.714Z,0.52
2023-04-15T01:15:12.241Z,0.85
2023-04-15T01:17:39.977Z,0.77
2023-04-15T01:20:10.554Z,0.95
2023-04-15T01:25:19.845Z,0.53
2023-04-15T01:27:47.704Z,1.20
2023-04-15T01:30:16.355Z,0.50
2023-04-15T01:32:43.527Z,0.43
2023-04-15T01:35:10.781Z,1.27
2023-04-15T01:37:38.268Z,1.30
2023-04-15T01:40:06.613Z,1.83
2023-04-15T01:42:36.569Z,0.90
2023-04-15T01:45:04.598Z,1.27
2023-04-15T01:47:32.224Z,0.52
2023-04-15T01:49:59.487Z,2.03
2023-04-15T01:52:26.740Z,1.00
2023-04-15T01:54:53.896Z,0.80
2023-04-15T01:57:21.164Z,0.90
2023-04-15T01:59:48.495Z,0.80
2023-04-15T02:02:16.299Z,0.63
2023-04-15T02:04:43.517Z,0.80
2023-04-15T02:07:10.786Z,0.60
2023-04-15T02:09:38.706Z,0.52
2023-04-15T02:12:08.692Z,0.68
2023-04-15T02:14:36.054Z,0.73
2023-04-15T02:17:07.432Z,1.58
2023-04-15T02:19:35.821Z,0.52
2023-04-15T02:22:04.297Z,0.90
2023-04-15T02:24:31.706Z,0.80
2023-04-15T02:26:58.962Z,0.82
2023-04-15T02:29:26.320Z,0.52
2023-04-15T02:31:53.600Z,1.70
2023-04-15T02:34:20.888Z,1.48
2023-04-15T02:36:49.744Z,1.20
2023-04-15T02:39:18.658Z,1.55
2023-04-15T02:41:51.846Z,1.42
2023-04-15T02:44:20.578Z,0.85
2023-04-15T02:49:23.047Z,0.60
2023-04-15T02:51:51.334Z,0.68
2023-04-15T02:54:22.917Z,1.25
2023-04-15T02:56:50.873Z,1.85
2023-04-15T02:59:18.129Z,3.00
2023-04-15T03:01:45.750Z,2.42
2023-04-15T03:04:14.465Z,1.25
2023-04-15T03:06:41.815Z,0.65
2023-04-15T03:09:10.394Z,1.70
2023-04-15T03:11:41.088Z,0.70
2023-04-15T03:14:10.094Z,1.17
2023-04-15T03:16:41.774Z,0.80
2023-04-15T03:19:09.127Z,0.88
2023-04-15T03:21:37.702Z,1.00
2023-04-15T03:24:05.189Z,2.22
2023-04-15T03:26:32.951Z,18.13
2023-04-15T03:29:03.148Z,50.42
2023-04-15T03:31:30.630Z,122.82
2023-04-15T03:33:57.938Z,139.30
2023-04-15T03:36:25.968Z,10.15
2023-04-15T03:38:53.157Z,10.25
2023-04-15T03:41:20.426Z,72.07
2023-04-15T03:43:47.755Z,109.80
2023-04-15T03:46:15.088Z,50.50
2023-04-15T03:48:42.321Z,57.28
2023-04-15T03:51:10.030Z,47.42
2023-04-15T03:53:37.634Z,44.65
2023-04-15T03:56:05.670Z,45.67
2023-04-15T03:58:32.895Z,40.13
2023-04-15T04:01:00.486Z,16.88
2023-04-15T04:03:28.004Z,26.77
2023-04-15T04:05:55.431Z,17.10
2023-04-15T04:08:22.851Z,20.65
2023-04-15T04:10:50.265Z,17.15
2023-04-15T04:13:17.530Z,15.23
2023-04-15T04:15:44.910Z,10.10
2023-04-15T04:18:12.581Z,6.18
2023-04-15T04:20:39.868Z,8.95
2023-04-15T04:23:07.145Z,6.47
2023-04-15T04:25:34.488Z,5.32
2023-04-15T04:28:01.768Z,6.78
2023-04-15T04:30:29.004Z,6.05
2023-04-15T04:32:56.375Z,5.50
2023-04-15T04:35:23.706Z,1.63
2023-04-15T04:37:51.003Z,3.17
2023-04-15T04:40:18.413Z,2.67
2023-04-15T04:42:46.113Z,3.50
2023-04-15T04:45:13.503Z,3.63
2023-04-15T04:47:40.811Z,4.07
2023-04-15T04:50:09.314Z,2.15
2023-04-15T04:52:36.954Z,2.25
2023-04-15T04:55:04.533Z,3.60
2023-04-15T04:57:31.984Z,3.75
2023-04-15T04:59:59.318Z,6.07
2023-04-15T05:02:27.720Z,4.05
2023-04-15T05:04:55.466Z,6.47
2023-04-15T05:07:22.929Z,3.35
2023-04-15T05:09:50.314Z,4.88
2023-04-15T05:12:18.352Z,2.60
2023-04-15T05:14:46.880Z,4.57
2023-04-15T05:17:14.393Z,2.53
2023-04-15T05:19:41.555Z,2.83
2023-04-15T05:22:08.906Z,2.90
2023-04-15T05:24:36.548Z,3.85
2023-04-15T05:27:03.838Z,6.22
2023-04-15T05:29:31.348Z,3.35
2023-04-15T05:31:58.691Z,1.85
2023-04-15T05:34:26.118Z,1.27
2023-04-15T05:36:53.241Z,3.10
2023-04-15T05:39:20.920Z,1.05
2023-04-15T05:41:48.184Z,2.97
2023-04-15T05:44:15.488Z,7.25
2023-04-15T05:46:43.473Z,7.80
2023-04-15T05:49:10.960Z,6.88
2023-04-15T05:51:38.167Z,4.80
2023-04-15T05:54:05.792Z,5.53
2023-04-15T05:56:33.179Z,2.72
2023-04-15T05:59:00.677Z,1.33
2023-04-15T06:01:28.235Z,2.40
2023-04-15T06:03:55.856Z,1.30
2023-04-15T06:06:23.647Z,1.70
2023-04-15T06:08:51.038Z,2.08
2023-04-15T06:11:18.344Z,1.67
2023-04-15T06:13:45.669Z,6.18
2023-04-15T06:16:12.908Z,1.35
2023-04-15T06:18:40.451Z,1.80
2023-04-15T06:21:08.099Z,2.28
2023-04-15T06:23:37.297Z,5.90
2023-04-15T06:26:04.659Z,3.55
2023-04-15T06:28:31.896Z,3.42
2023-04-15T06:30:59.219Z,6.07
2023-04-15T06:33:26.477Z,2.05
2023-04-15T06:35:54.091Z,4.22
2023-04-15T06:38:21.530Z,5.95
2023-04-15T06:40:48.924Z,1.90
2023-04-15T06:43:16.132Z,2.47
2023-04-15T06:45:43.316Z,1.52
2023-04-15T06:48:10.498Z,2.17
2023-04-15T06:50:37.878Z,3.00
2023-04-15T06:53:05.244Z,5.20
2023-04-15T06:55:33.992Z,4.45
2023-04-15T06:58:01.296Z,3.80
2023-04-15T07:00:28.829Z,2.60
2023-04-15T07:02:56.810Z,1.75
2023-04-15T07:05:25.451Z,3.35
2023-04-15T07:07:53.116Z,1.17
2023-04-15T07:10:20.573Z,1.27
2023-04-15T07:12:50.724Z,0.30
2023-04-15T07:15:18.065Z,2.63
2023-04-15T07:17:45.423Z,0.68
2023-04-15T07:20:13.322Z,1.65
2023-04-15T07:22:40.946Z,0.60
2023-04-15T07:25:09.174Z,0.32
2023-04-15T07:27:36.795Z,0.30
2023-04-15T07:30:04.543Z,2.08
2023-04-15T07:32:31.950Z,0.35
2023-04-15T07:34:59.340Z,0.52
2023-04-15T07:37:26.608Z,0.55
2023-04-15T07:39:53.740Z,0.52
2023-04-15T07:42:21.538Z,0.30
2023-04-15T07:44:48.869Z,0.50
2023-04-15T07:47:16.277Z,0.40
2023-04-15T07:49:44.426Z,0.93
2023-04-15T07:52:11.804Z,0.30
2023-04-15T07:54:39.953Z,0.80
2023-04-15T07:57:07.972Z,0.30
2023-04-15T07:59:35.426Z,0.15
2023-04-15T08:02:03.529Z,0.82
2023-04-15T08:04:31.390Z,0.40
2023-04-15T08:06:59.102Z,0.30
2023-04-15T08:09:27.298Z,0.80
2023-04-15T08:11:54.589Z,0.35
2023-04-15T08:14:22.302Z,2.55
2023-04-15T08:16:49.507Z,0.30
2023-04-15T08:19:17.240Z,0.35
2023-04-15T08:21:44.545Z,0.30
2023-04-15T08:24:12.419Z,0.30
2023-04-15T08:26:39.607Z,0.50
2023-04-15T08:29:06.871Z,0.30
2023-04-15T08:31:34.275Z,0.30
2023-04-15T08:34:01.596Z,3.33
2023-04-15T08:36:28.842Z,0.80
2023-04-15T08:38:56.264Z,0.47
2023-04-15T08:41:26.216Z,0.75
2023-04-15T08:44:01.427Z,1.52
2023-04-15T08:46:29.541Z,1.05
2023-04-15T08:48:58.596Z,1.60
2023-04-15T08:51:27.293Z,0.50
2023-04-15T08:53:55.288Z,1.95
2023-04-15T08:56:29.690Z,0.55
2023-04-15T08:58:57.949Z,0.85
2023-04-15T09:01:25.762Z,1.25
2023-04-15T09:03:57.245Z,0.60
2023-04-15T09:06:27.208Z,0.70
2023-04-15T09:08:54.806Z,1.70
2023-04-15T09:11:22.978Z,4.90
2023-04-15T09:13:50.657Z,1.77
2023-04-15T09:16:18.783Z,1.33
2023-04-15T09:18:46.336Z,0.90
2023-04-15T09:21:16.883Z,2.30
2023-04-15T09:24:02.085Z,1.38
2023-04-15T09:26:35.095Z,0.60
2023-04-15T09:29:10.992Z,0.75
2023-04-15T09:31:38.578Z,1.90
2023-04-15T09:34:07.052Z,0.70
2023-04-15T09:36:57.508Z,0.90
2023-04-15T09:39:24.884Z,1.35
2023-04-15T09:42:08.739Z,1.05
2023-04-15T09:44:36.517Z,0.88
2023-04-15T09:47:03.881Z,1.48
2023-04-15T09:49:31.210Z,0.82
2023-04-15T09:52:06.185Z,0.77
2023-04-15T09:54:37.806Z,1.42
2023-04-15T09:57:10.484Z,1.00
2023-04-15T09:59:38.056Z,1.92
2023-04-15T10:02:07.837Z,0.52
2023-04-15T10:04:39.422Z,0.88
2023-04-15T10:07:12.285Z,0.70
2023-04-15T10:09:40.553Z,0.85
2023-04-15T10:12:08.943Z,0.63
2023-04-15T10:14:38.812Z,0.60
2023-04-15T10:17:08.430Z,2.65
2023-04-15T10:19:38.224Z,0.90
2023-04-15T10:22:07.102Z,0.85
2023-04-15T10:24:34.618Z,0.73
2023-04-15T10:27:04.677Z,0.90
2023-04-15T10:29:32.292Z,1.30
2023-04-15T10:32:01.931Z,0.50
2023-04-15T10:34:30.706Z,3.50
2023-04-15T10:37:03.697Z,1.40
2023-04-15T10:39:36.468Z,0.57
2023-04-15T10:42:08.956Z,0.77
2023-04-15T10:44:42.562Z,0.43
2023-04-15T10:47:21.713Z,1.15
2023-04-15T10:49:58.601Z,1.05
2023-04-15T10:52:28.799Z,0.65
2023-04-15T10:55:11.500Z,0.88
2023-04-15T10:57:41.421Z,3.33
2023-04-15T11:00:14.283Z,0.85
2023-04-15T11:02:47.429Z,0.50
2023-04-15T11:05:17.453Z,0.30
2023-04-15T11:07:55.784Z,1.02
2023-04-15T11:10:26.308Z,1.00
2023-04-15T11:12:58.507Z,1.67
2023-04-15T11:15:47.205Z,1.38
2023-04-15T11:18:17.111Z,1.00
2023-04-15T11:20:48.999Z,1.83
2023-04-15T11:23:19.258Z,0.80
2023-04-15T11:25:46.868Z,0.95
2023-04-15T11:28:14.508Z,0.90
2023-04-15T11:30:43.902Z,0.63
2023-04-15T11:33:12.735Z,1.38
2023-04-15T11:35:42.391Z,2.15
2023-04-15T11:38:12.693Z,2.28
2023-04-15T11:40:42.133Z,3.72
2023-04-15T11:43:11.368Z,2.00
2023-04-15T11:45:58.839Z,0.73
2023-04-15T11:48:32.199Z,0.88
2023-04-15T11:51:05.442Z,1.75
2023-04-15T11:53:48.685Z,2.00
2023-04-15T11:56:25.609Z,5.35
2023-04-15T11:58:57.223Z,1.30
2023-04-15T12:01:39.916Z,5.65
2023-04-15T12:04:14.761Z,3.65
2023-04-15T12:06:42.188Z,1.50
2023-04-15T12:09:14.704Z,1.58
2023-04-15T12:11:55.804Z,1.83
2023-04-15T12:14:32.848Z,1.10
2023-04-15T12:17:05.628Z,0.93
2023-04-15T12:19:45.617Z,1.50
2023-04-15T12:22:17.071Z,1.35
2023-04-15T12:24:48.076Z,2.58
2023-04-15T12:27:17.111Z,2.15
2023-04-15T12:29:45.079Z,1.30
2023-04-15T12:32:14.067Z,1.23
2023-04-15T12:34:51.272Z,1.15
2023-04-15T12:37:18.865Z,0.77
2023-04-15T12:39:50.190Z,1.02
2023-04-15T12:42:18.629Z,0.77
2023-04-15T12:44:46.372Z,0.95
2023-04-15T12:47:14.108Z,1.70
2023-04-15T12:49:41.554Z,1.50
2023-04-15T12:52:08.942Z,1.85
2023-04-15T12:54:36.536Z,1.45
2023-04-15T12:57:06.810Z,1.02
2023-04-15T12:59:35.488Z,0.73
2023-04-15T13:02:03.312Z,1.60
2023-04-15T13:04:31.633Z,0.93
2023-04-15T13:06:59.058Z,1.25
2023-04-15T13:09:26.455Z,1.00
2023-04-15T13:11:54.731Z,0.98
2023-04-15T13:14:22.141Z,1.15
2023-04-15T13:16:49.306Z,1.65
2023-04-15T13:19:16.545Z,1.27
2023-04-15T13:21:43.954Z,0.95
2023-04-15T13:24:11.279Z,0.95
2023-04-15T13:26:38.581Z,2.20
2023-04-15T13:29:06.015Z,1.63
2023-04-15T13:31:33.382Z,1.10
2023-04-15T13:34:00.935Z,1.02
2023-04-15T13:36:28.367Z,0.95
2023-04-15T13:38:55.826Z,0.75
2023-04-15T13:41:23.093Z,0.85
2023-04-15T13:43:50.517Z,1.33
2023-04-15T13:46:17.862Z,1.98
2023-04-15T13:48:45.341Z,2.22
2023-04-15T13:51:12.648Z,1.23
2023-04-15T13:53:40.017Z,1.33
2023-04-15T13:56:08.719Z,0.93
2023-04-15T13:58:37.995Z,3.85
2023-04-15T14:01:06.989Z,3.75
2023-04-15T14:03:38.350Z,1.63
2023-04-15T14:06:06.740Z,2.55
2023-04-15T14:08:34.111Z,1.90
2023-04-15T14:11:01.693Z,1.30
2023-04-15T14:13:29.231Z,1.30
2023-04-15T14:15:57.647Z,1.55
2023-04-15T14:18:25.357Z,1.00
2023-04-15T14:20:52.742Z,1.33
2023-04-15T14:23:20.117Z,2.17
2023-04-15T14:25:48.355Z,1.35
2023-04-15T14:28:16.195Z,1.95
2023-04-15T14:30:43.764Z,1.08
2023-04-15T14:33:11.284Z,3.42
2023-04-15T14:35:39.231Z,1.75
2023-04-15T14:38:10.500Z,3.20
2023-04-15T14:40:38.004Z,2.10
2023-04-15T14:43:05.299Z,1.00
2023-04-15T14:45:32.606Z,1.10
2023-04-15T14:48:00.343Z,1.00
2023-04-15T14:50:27.715Z,0.90
2023-04-15T14:52:54.942Z,1.08
2023-04-15T14:55:22.425Z,1.60
2023-04-15T14:57:49.756Z,1.92
2023-04-15T15:00:17.217Z,1.23
2023-04-15T15:02:44.686Z,0.80
2023-04-15T15:05:12.524Z,1.17
2023-04-15T15:07:43.294Z,2.33
2023-04-15T15:10:10.790Z,2.00
2023-04-15T15:12:38.116Z,1.40
2023-04-15T15:15:15.741Z,1.33
2023-04-15T15:17:53.886Z,1.80
2023-04-15T15:20:21.805Z,2.10
2023-04-15T15:22:49.213Z,2.17
2023-04-15T15:25:16.563Z,2.22
2023-04-15T15:27:43.900Z,2.65
2023-04-15T15:30:12.014Z,2.80
2023-04-15T15:32:41.817Z,2.55
2023-04-15T15:35:10.512Z,1.25
2023-04-15T15:37:38.453Z,3.90
2023-04-15T15:40:06.866Z,4.30
2023-04-15T15:42:34.914Z,2.03
2023-04-15T15:45:04.811Z,2.75
2023-04-15T15:47:32.179Z,5.55
2023-04-15T15:50:02.342Z,4.20
2023-04-15T15:52:31.025Z,3.35
2023-04-15T15:54:58.345Z,4.05
2023-04-15T15:57:25.748Z,3.80
2023-04-15T16:00:04.726Z,2.08
2023-04-15T16:03:04.436Z,2.97
2023-04-15T16:05:25.415Z,2.40
2023-04-15T16:07:52.797Z,2.83
2023-04-15T16:10:20.074Z,3.17
2023-04-15T16:12:47.319Z,6.55
2023-04-15T16:15:14.861Z,4.05
2023-04-15T16:17:42.245Z,4.10
2023-04-15T16:20:10.413Z,2.58
2023-04-15T16:22:38.057Z,3.35
2023-04-15T16:25:05.917Z,4.32
2023-04-15T16:27:36.431Z,2.08
2023-04-15T16:30:07.274Z,2.53
2023-04-15T16:32:34.731Z,2.05
2023-04-15T16:35:03.418Z,1.63
2023-04-15T16:37:32.974Z,2.80
2023-04-15T16:40:01.059Z,1.73
2023-04-15T16:42:28.969Z,2.70
2023-04-15T16:44:56.454Z,1.55
2023-04-15T16:47:23.784Z,4.88
2023-04-15T16:49:51.328Z,5.68
2023-04-15T16:52:18.762Z,6.55
2023-04-15T16:54:46.120Z,7.43
2023-04-15T16:57:13.419Z,6.65
2023-04-15T16:59:40.804Z,6.13
2023-04-15T17:02:13.473Z,6.57
2023-04-15T17:04:41.874Z,6.18
2023-04-15T17:07:10.666Z,7.30
2023-04-15T17:09:39.750Z,9.90
2023-04-15T17:12:07.510Z,5.45
2023-04-15T17:14:35.339Z,8.35
2023-04-15T17:17:02.695Z,8.85
2023-04-15T17:19:29.842Z,5.85
2023-04-15T17:21:58.236Z,5.82
2023-04-15T17:24:25.621Z,6.47
2023-04-15T17:26:54.336Z,5.93
2023-04-15T17:29:21.545Z,5.75
2023-04-15T17:31:48.811Z,6.57
2023-04-15T17:34:16.243Z,6.43
2023-04-15T17:36:43.703Z,8.38
2023-04-15T17:39:11.704Z,6.25
2023-04-15T17:41:38.971Z,13.00
2023-04-15T17:44:06.591Z,20.65
2023-04-15T17:46:34.206Z,10.05
2023-04-15T17:49:02.633Z,10.43
2023-04-15T17:51:30.004Z,5.65
2023-04-15T17:54:07.536Z,7.57
2023-04-15T17:56:35.403Z,8.65
2023-04-15T17:59:03.613Z,15.18
2023-04-15T18:01:30.907Z,9.27
2023-04-15T18:03:58.421Z,9.15
2023-04-15T18:06:27.296Z,13.00
2023-04-15T18:08:54.616Z,6.45
2023-04-15T18:11:22.038Z,8.88
2023-04-15T18:13:49.477Z,7.45
2023-04-15T18:16:16.692Z,6.97
2023-04-15T18:18:44.091Z,8.35
2023-04-15T18:21:13.530Z,7.00
2023-04-15T18:23:41.269Z,10.10
2023-04-15T18:26:08.581Z,7.07
2023-04-15T18:28:37.657Z,10.15
2023-04-15T18:31:05.622Z,8.23
2023-04-15T18:33:33.049Z,6.15
2023-04-15T18:36:02.544Z,7.57
2023-04-15T18:38:29.901Z,7.82
2023-04-15T18:40:57.141Z,7.30
2023-04-15T18:43:24.336Z,21.65
2023-04-15T18:45:53.121Z,5.43
2023-04-15T18:48:20.882Z,6.88
2023-04-15T18:50:49.072Z,11.73
2023-04-15T18:53:16.516Z,7.45
2023-04-15T18:55:43.759Z,14.90
2023-04-15T18:58:11.116Z,6.70
2023-04-15T19:00:41.848Z,13.85
2023-04-15T19:03:10.092Z,9.38
2023-04-15T19:05:37.675Z,10.77
2023-04-15T19:08:05.143Z,8.85
2023-04-15T19:10:34.040Z,7.78
2023-04-15T19:13:01.342Z,7.88
2023-04-15T19:15:29.411Z,10.60
2023-04-15T19:17:56.886Z,7.10
2023-04-15T19:20:24.224Z,9.82
2023-04-15T19:22:51.819Z,13.73
2023-04-15T19:25:19.262Z,21.42
2023-04-15T19:27:46.759Z,14.40
2023-04-15T19:30:14.198Z,8.02
2023-04-15T19:32:41.421Z,7.38
2023-04-15T19:35:11.371Z,7.50
2023-04-15T19:37:39.055Z,8.27
2023-04-15T19:40:07.383Z,8.70
2023-04-15T19:42:34.999Z,7.32
2023-04-15T19:45:02.316Z,10.32
2023-04-15T19:47:29.519Z,9.30
2023-04-15T19:49:56.780Z,15.07
2023-04-15T19:52:24.037Z,11.35
2023-04-15T19:54:51.344Z,8.23
2023-04-15T19:57:18.571Z,9.30
2023-04-15T19:59:45.953Z,9.43
2023-04-15T20:02:13.403Z,6.75
2023-04-15T20:04:40.868Z,5.47
2023-04-15T20:07:08.380Z,4.05
2023-04-15T20:09:35.640Z,5.20
2023-04-15T20:12:45.570Z,4.75
2023-04-15T20:14:50.275Z,5.30
2023-04-15T20:17:17.461Z,5.72
2023-04-15T20:19:44.693Z,4.43
2023-04-15T20:22:11.940Z,5.30
2023-04-15T20:24:39.336Z,5.18
2023-04-15T20:27:06.549Z,6.28
2023-04-15T20:29:33.952Z,4.82
2023-04-15T20:32:01.268Z,6.03
2023-04-15T20:34:28.516Z,4.57
2023-04-15T20:36:55.872Z,3.92
2023-04-15T20:39:23.347Z,5.82
2023-04-15T20:41:50.791Z,3.20
2023-04-15T20:44:17.995Z,3.53
2023-04-15T20:46:45.263Z,7.57
2023-04-15T20:49:12.557Z,2.92
2023-04-15T20:51:40.471Z,3.83
2023-04-15T20:54:08.021Z,9.27
2023-04-15T20:56:35.477Z,6.25
2023-04-15T20:59:03.019Z,6.10
2023-04-15T21:01:30.623Z,3.10
2023-04-15T21:03:58.968Z,4.70
2023-04-15T21:06:27.147Z,4.10
2023-04-15T21:08:54.423Z,3.55
2023-04-15T21:11:40.626Z,4.70
2023-04-15T21:14:09.249Z,3.50
2023-04-15T21:16:36.531Z,3.97
2023-04-15T21:19:03.975Z,3.42
2023-04-15T21:21:32.030Z,3.80
2023-04-15T21:23:59.870Z,4.13
2023-04-15T21:26:27.065Z,3.28
2023-04-15T21:28:54.362Z,5.00
2023-04-15T21:31:22.169Z,5.15
2023-04-15T21:33:49.625Z,3.20
2023-04-15T21:36:16.878Z,4.28
2023-04-15T21:38:44.255Z,3.55
2023-04-15T21:41:11.418Z,3.42
2023-04-15T21:43:38.994Z,4.65
2023-04-15T21:46:22.563Z,4.07
2023-04-15T21:48:53.663Z,3.55
2023-04-15T21:51:21.064Z,4.88
2023-04-15T21:53:48.531Z,3.75
2023-04-15T21:56:15.825Z,3.83
2023-04-15T21:58:43.139Z,4.72
2023-04-15T22:01:10.527Z,7.28
2023-04-15T22:03:37.902Z,4.43
2023-04-15T22:06:05.574Z,4.88
2023-04-15T22:08:38.699Z,5.10
2023-04-15T22:11:28.451Z,4.15
2023-04-15T22:13:57.429Z,3.60
2023-04-15T22:16:28.720Z,3.22
2023-04-15T22:18:56.491Z,4.57
2023-04-15T22:21:24.086Z,5.68
2023-04-15T22:23:52.311Z,5.75
2023-04-15T22:26:19.588Z,3.70
2023-04-15T22:28:46.925Z,6.47
2023-04-15T22:31:15.038Z,4.18
2023-04-15T22:33:42.480Z,4.50
2023-04-15T22:36:09.910Z,4.38
2023-04-15T22:38:37.361Z,4.88
2023-04-15T22:41:04.912Z,5.35
2023-04-15T22:43:32.292Z,3.47
2023-04-15T22:46:01.326Z,5.30
2023-04-15T22:48:28.630Z,3.90
2023-04-15T22:50:56.021Z,2.95
2023-04-15T22:53:23.360Z,3.75
2023-04-15T22:55:51.186Z,3.90
2023-04-15T22:58:18.579Z,3.85
2023-04-15T23:00:45.938Z,4.68
2023-04-15T23:03:13.336Z,5.43
2023-04-15T23:05:41.298Z,5.40
2023-04-15T23:08:08.708Z,5.22
2023-04-15T23:10:35.888Z,6.70
2023-04-15T23:13:03.147Z,5.15
2023-04-15T23:15:30.401Z,5.70
2023-04-15T23:17:57.792Z,4.00
2023-04-15T23:20:25.062Z,4.53
2023-04-15T23:22:52.292Z,4.05
2023-04-15T23:25:22.288Z,5.28
2023-04-15T23:27:49.474Z,11.55
2023-04-15T23:30:16.948Z,8.38
2023-04-15T23:32:44.207Z,10.38
2023-04-15T23:35:11.689Z,10.55
2023-04-15T23:37:38.972Z,4.05
2023-04-15T23:40:07.339Z,5.43
2023-04-15T23:42:34.590Z,4.32
2023-04-15T23:45:01.994Z,6.72
2023-04-15T23:47:29.191Z,6.88
2023-04-15T23:49:56.535Z,5.03
2023-04-15T23:52:24.072Z,6.57
2023-04-15T23:54:51.581Z,5.55
2023-04-15T23:57:18.925Z,4.40
2023-04-15T23:59:46.715Z,4.18
